Airfield :
LOGIN :

Register | Disclaimer

   EN    FR    IT 

 










Legend :    VFR   Marginal VFR   IFR   Intensive IFR   Very Intensive IFR
Visi :
Ceiling :
>= 8 km
>= 3000ft
5 to 8 km
1000 to 3000 ft
1500m to 5 km
500 to 1000 ft
800 to 1500m
200 to 500 ft
< 800m
< 200 ft
Symbols :   Thunderstorms  Fog  Heavy snow  Heavy precipitations  Wind > 20 kt
SIGMETs :     Misc.  Thunderstorms  Icing  Turbulence  Mountain Waves  Volcanic Ashes







- Airport Elevation : 74 ft
- IATA code : EIN


EHEH - Eindhoven

CURRENT METAR :
  • 211255Z AUTO 10003KT 080V240 9999 FEW056 OVC280 22/07 Q1028 BLU VRB04 CAVOK

EXPIRED METARs :
  • 211225Z AUTO VRB06KT 9999 FEW053 BKN290 22/07 Q1028 BLU 22006KT 9999 FEW045 SCT250
  • 211155Z AUTO 27004KT 220V300 9999 BKN051 OVC320 21/09 Q1028 BLU 22006KT 9999 FEW045 SCT250
  • 211125Z AUTO 24007KT 220V340 9999 SCT047 BKN052 22/09 Q1028 BLU 22006KT 9999 FEW045 SCT250
  • 211055Z AUTO 22003KT 140V270 9999 FEW048 20/09 Q1028 BLU 20005KT 9999 FEW030
  • 211025Z AUTO 20003KT 140V280 9999 FEW044 20/08 Q1028 BLU 20005KT 9999 FEW030

TAF TAF EHEH
Valid from the 21 at 12:00 until the 22 at 18:00 UTC


211142Z 2112/2218 26005KT CAVOK
BECMG 2112/2115 VRB03KT
BECMG 2119/2121 10005KT
BECMG 2204/2206 16004KT
BECMG 2207/2209 24005KT
BECMG 2215/2217 32005KT
No reported NOTAMs for that airfield.



MET'MAP, your aeronautical weather chart ! - Copyright ORBIFLY December 2007 - Disclaimer

ORBIFLY MET'MAP TEAM :

Programming & Development : Alexandra Zaïnal
Concept & Development : Baudouin d'Aumeries
Co-Development & Prog : Marc-Olivier Méhu
Technical & hardware support : Manuel Goepfert

Contact : metmap@orbifly.com




SOURCES & CREDITS :

   NOAA